KSSC/SSC METAR and TAF weather

Enter ICAO airport designator
Station Type Date Time Source
KSSC METAR 2020/01/24 08:56 UTC NOAA

KSSC 240856Z 05007KT 4SM -RA FEW015 OVC022 07/06 A3012 RMK AO2A RAB11 SLP202 P0003 60003 T00670056 57014 $


Station Type Date Time Source
KSSC Decoded METAR 2020/01/24 08:56 UTC NOAA

Shaw Air Force Base, SC, United States (KSSC) 33-58N 080-29W 73M
Jan 24, 2020 - 03:56 AM EST / 2020.01.24 0856 UTC
Wind: from the NE (050 degrees) at 8 MPH (7 KT):0
Visibility: 4 mile(s):0
Sky conditions: overcast
Weather: light rain
Precipitation last hour: 0.03 inches
Temperature: 44.1 F (6.7 C)
Dew Point: 42.1 F (5.6 C)
Relative Humidity: 92%
Pressure (altimeter): 30.12 in. Hg (1019 hPa)
Pressure tendency: 0.04 inches (1.4 hPa) lower than three hours ago
ob: KSSC 240856Z 05007KT 4SM -RA FEW015 OVC022 07/06 A3012 RMK AO2A RAB11 SLP202 P0003 60003 T00670056 57014
cycle: 9

Station Type Date Time Source
KSSC TAF 2020/01/24 08:29 UTC NOAA

TAF KSSC 240800Z 2408/2514 06007KT 9999 VCSH SCT015 OVC030 QNH3012INS
BECMG 2409/2410 09007KT 4800 -SHRA BR SCT008 OVC010 QNH3009INS
TEMPO 2410/2412 3200 SHRA BR OVC008
BECMG 2414/2415 10009KT 9999 VCSH BKN020 QNH2993INS
BECMG 2423/2424 17009KT 4800 -SHRA VCTS OVC010CB QNH2990INS
TEMPO 2500/2502 22012G18KT 3200 SHRA
BECMG 2502/2503 27007KT 9999 NSW SCT030 QNH2987INS TX16/2420Z TN08/2408Z

Example: see airport list